createdAt,value
2023-10-11T00:02:06.947Z,71.43
2023-10-11T00:04:35.508Z,72.26
2023-10-11T00:07:05.248Z,72.31
2023-10-11T00:09:36.876Z,72.34
2023-10-11T00:12:13.086Z,72.76
2023-10-11T00:14:44.085Z,73.13
2023-10-11T00:17:12.855Z,72.95
2023-10-11T00:19:41.601Z,73.19
2023-10-11T00:22:10.195Z,73.64
2023-10-11T00:24:39.191Z,74.27
2023-10-11T00:27:11.972Z,73.74
2023-10-11T00:29:40.765Z,74.40
2023-10-11T00:32:10.702Z,74.06
2023-10-11T00:34:39.677Z,74.19
2023-10-11T00:37:10.831Z,74.50
2023-10-11T00:39:39.493Z,74.72
2023-10-11T00:42:11.275Z,74.84
2023-10-11T00:44:41.574Z,75.17
2023-10-11T00:47:10.548Z,75.47
2023-10-11T00:49:41.392Z,75.74
2023-10-11T00:52:10.065Z,76.40
2023-10-11T00:54:44.277Z,77.06
2023-10-11T00:57:16.996Z,77.47
2023-10-11T00:59:45.919Z,77.84
2023-10-11T01:02:16.133Z,78.43
2023-10-11T01:05:07.508Z,78.87
2023-10-11T01:07:39.998Z,78.97
2023-10-11T01:10:10.494Z,78.99
2023-10-11T01:12:41.202Z,78.83
2023-10-11T01:15:13.021Z,79.14
2023-10-11T01:17:41.817Z,79.71
2023-10-11T01:20:14.510Z,79.59
2023-10-11T01:22:45.320Z,79.74
2023-10-11T01:25:20.087Z,79.90
2023-10-11T01:28:06.899Z,79.83
2023-10-11T01:30:35.626Z,79.44
2023-10-11T01:33:06.908Z,79.99
2023-10-11T01:35:37.878Z,79.58
2023-10-11T01:38:08.382Z,80.18
2023-10-11T01:40:41.215Z,79.55
2023-10-11T01:43:09.854Z,79.65
2023-10-11T01:45:40.731Z,79.52
2023-10-11T01:48:10.593Z,78.96
2023-10-11T01:50:39.259Z,78.55
2023-10-11T01:53:09.904Z,78.68
2023-10-11T01:55:40.626Z,79.05
2023-10-11T01:58:13.886Z,79.37
2023-10-11T02:00:42.747Z,79.90
2023-10-11T02:03:15.240Z,79.22
2023-10-11T02:05:45.349Z,79.12
2023-10-11T02:08:18.352Z,79.05
2023-10-11T02:10:47.074Z,79.17
2023-10-11T02:13:16.535Z,79.06
2023-10-11T02:15:48.789Z,78.63
2023-10-11T02:18:17.580Z,79.01
2023-10-11T02:20:47.188Z,79.52
2023-10-11T02:23:18.604Z,79.37
2023-10-11T02:25:47.553Z,79.47
2023-10-11T02:28:16.687Z,79.94
2023-10-11T02:30:45.432Z,79.46
2023-10-11T02:33:14.147Z,79.38
2023-10-11T02:35:56.611Z,79.53
2023-10-11T02:38:27.089Z,79.51
2023-10-11T02:40:58.764Z,80.08
2023-10-11T02:43:28.462Z,80.01
2023-10-11T02:46:00.499Z,80.38
2023-10-11T02:48:29.772Z,80.13
2023-10-11T02:50:59.815Z,80.34
2023-10-11T02:53:29.756Z,80.82
2023-10-11T02:56:04.315Z,80.75
2023-10-11T02:58:35.263Z,81.43
2023-10-11T03:01:19.889Z,82.04
2023-10-11T03:03:50.324Z,81.42
2023-10-11T03:06:20.527Z,81.57
2023-10-11T03:08:52.773Z,81.52
2023-10-11T03:11:21.682Z,81.50
2023-10-11T03:13:50.317Z,81.73
2023-10-11T03:16:19.652Z,82.15
2023-10-11T03:18:48.742Z,82.52
2023-10-11T03:21:19.020Z,82.45
2023-10-11T03:23:55.281Z,82.29
2023-10-11T03:26:32.307Z,82.45
2023-10-11T03:29:04.821Z,82.68
2023-10-11T03:31:35.529Z,82.63
2023-10-11T03:34:11.684Z,82.76
2023-10-11T03:36:50.726Z,82.98
2023-10-11T03:39:29.791Z,82.57
2023-10-11T03:42:08.227Z,83.12
2023-10-11T03:44:37.931Z,82.43
2023-10-11T03:47:09.355Z,82.52
2023-10-11T03:49:50.782Z,82.68
2023-10-11T03:52:23.796Z,82.68
2023-10-11T03:55:02.462Z,82.85
2023-10-11T03:57:36.358Z,82.19
2023-10-11T04:00:19.992Z,82.28
2023-10-11T04:02:49.063Z,81.85
2023-10-11T04:05:17.756Z,82.01
2023-10-11T04:07:46.549Z,81.69
2023-10-11T04:10:21.723Z,81.89
2023-10-11T04:12:50.450Z,81.68
2023-10-11T04:15:25.874Z,81.65
2023-10-11T04:17:56.830Z,81.57
2023-10-11T04:20:34.154Z,81.74
2023-10-11T04:23:11.564Z,81.67
2023-10-11T04:25:44.581Z,82.06
2023-10-11T04:28:13.714Z,82.48
2023-10-11T04:30:43.156Z,81.79
2023-10-11T04:33:13.784Z,81.89
2023-10-11T04:35:46.320Z,81.92
2023-10-11T04:38:15.102Z,81.89
2023-10-11T04:40:51.536Z,81.38
2023-10-11T04:43:26.110Z,81.04
2023-10-11T04:45:57.462Z,81.10
2023-10-11T04:48:31.953Z,80.58
2023-10-11T04:51:08.730Z,81.22
2023-10-11T04:53:55.351Z,80.99
2023-10-11T04:56:44.930Z,80.60
2023-10-11T04:59:18.859Z,80.74
2023-10-11T05:01:59.542Z,80.37
2023-10-11T05:04:30.022Z,80.30
2023-10-11T05:06:59.021Z,80.65
2023-10-11T05:09:39.217Z,80.74
2023-10-11T05:12:11.700Z,80.56
2023-10-11T05:14:57.366Z,80.04
2023-10-11T05:17:39.991Z,79.85
2023-10-11T05:20:24.295Z,79.13
2023-10-11T05:23:03.688Z,78.70
2023-10-11T05:25:41.958Z,78.86
2023-10-11T05:28:31.533Z,79.49
2023-10-11T05:31:23.764Z,78.58
2023-10-11T05:34:09.981Z,78.15
2023-10-11T05:36:49.873Z,77.58
2023-10-11T05:39:36.255Z,77.47
2023-10-11T05:42:22.661Z,77.34
2023-10-11T05:45:10.416Z,77.18
2023-10-11T05:48:01.831Z,76.69
2023-10-11T05:50:48.581Z,76.01
2023-10-11T05:53:17.355Z,75.61
2023-10-11T05:55:45.961Z,75.52
2023-10-11T05:58:14.918Z,75.38
2023-10-11T06:00:50.987Z,75.21
2023-10-11T06:03:19.763Z,74.18
2023-10-11T06:05:52.532Z,72.97
2023-10-11T06:08:25.126Z,73.11
2023-10-11T06:10:57.580Z,72.57
2023-10-11T06:13:26.281Z,72.23
2023-10-11T06:16:03.037Z,71.32
2023-10-11T06:18:57.174Z,71.02
2023-10-11T06:21:33.296Z,70.17
2023-10-11T06:24:05.179Z,70.00
2023-10-11T06:26:54.934Z,69.42
2023-10-11T06:29:27.296Z,68.96
2023-10-11T06:32:09.267Z,68.67
2023-10-11T06:34:46.390Z,67.44
2023-10-11T06:37:18.328Z,67.40
2023-10-11T06:40:05.754Z,66.41
2023-10-11T06:42:34.532Z,64.94
2023-10-11T06:45:08.148Z,63.17
2023-10-11T06:47:38.327Z,62.43
2023-10-11T06:50:12.952Z,61.61
2023-10-11T06:52:45.539Z,59.63
2023-10-11T06:55:18.047Z,57.48
2023-10-11T06:57:51.916Z,55.39
2023-10-11T07:00:26.162Z,54.23
2023-10-11T07:03:08.239Z,54.58
2023-10-11T07:05:47.387Z,53.58
2023-10-11T07:08:20.007Z,54.55
2023-10-11T07:11:02.228Z,55.09
2023-10-11T07:13:50.492Z,54.46
2023-10-11T07:16:21.253Z,53.23
2023-10-11T07:18:55.495Z,51.83
2023-10-11T07:21:27.412Z,49.56
2023-10-11T07:24:05.874Z,48.70
2023-10-11T07:26:48.559Z,49.59
2023-10-11T07:29:21.830Z,49.96
2023-10-11T07:31:50.384Z,49.54
2023-10-11T07:34:22.123Z,48.53
2023-10-11T07:36:51.697Z,47.29
2023-10-11T07:39:28.564Z,47.65
2023-10-11T07:42:09.842Z,47.02
2023-10-11T07:44:40.173Z,46.76
2023-10-11T07:47:16.820Z,45.52
2023-10-11T07:49:51.745Z,44.29
2023-10-11T07:52:21.508Z,44.75
2023-10-11T07:54:53.104Z,44.97
2023-10-11T07:57:46.055Z,43.36
2023-10-11T08:00:19.940Z,41.00
2023-10-11T08:02:57.761Z,40.41
2023-10-11T08:05:32.696Z,40.72
2023-10-11T08:08:04.345Z,39.57
2023-10-11T08:10:36.061Z,39.18
2023-10-11T08:13:05.335Z,40.88
2023-10-11T08:15:39.806Z,40.02
2023-10-11T08:18:09.766Z,39.32
2023-10-11T08:20:39.810Z,38.71
2023-10-11T08:23:09.550Z,37.08
2023-10-11T08:25:42.044Z,36.42
2023-10-11T08:28:14.022Z,37.02
2023-10-11T08:30:46.909Z,36.47
2023-10-11T08:33:16.484Z,35.49
2023-10-11T08:35:49.697Z,35.04
2023-10-11T08:38:20.072Z,37.58
2023-10-11T08:40:51.690Z,36.43
2023-10-11T08:43:20.603Z,35.41
2023-10-11T08:45:51.585Z,36.16
2023-10-11T08:48:22.074Z,35.94
2023-10-11T08:50:55.254Z,35.20
2023-10-11T08:53:25.549Z,34.22
2023-10-11T08:55:59.873Z,33.47
2023-10-11T08:58:30.043Z,34.29
2023-10-11T09:01:00.289Z,33.23
2023-10-11T09:03:33.399Z,34.85
2023-10-11T09:06:24.778Z,33.20
2023-10-11T09:08:53.768Z,31.84
2023-10-11T09:11:30.769Z,32.17
2023-10-11T09:14:13.924Z,32.02
2023-10-11T09:16:58.390Z,31.29
2023-10-11T09:19:27.325Z,31.88
2023-10-11T09:22:04.970Z,30.18
2023-10-11T09:24:44.866Z,28.57
2023-10-11T09:27:19.681Z,29.07
2023-10-11T09:29:52.058Z,29.85
2023-10-11T09:32:28.492Z,29.62
2023-10-11T09:34:57.990Z,29.14
2023-10-11T09:37:33.175Z,30.33
2023-10-11T09:40:11.994Z,32.06
2023-10-11T09:42:44.987Z,34.36
2023-10-11T09:45:18.848Z,34.88
2023-10-11T09:47:55.699Z,36.71
2023-10-11T09:50:27.685Z,37.77
2023-10-11T09:53:01.948Z,36.85
2023-10-11T09:55:38.424Z,33.99
2023-10-11T09:58:18.506Z,33.16
2023-10-11T10:00:54.934Z,32.56
2023-10-11T10:04:06.874Z,31.31
2023-10-11T10:06:35.736Z,31.10
2023-10-11T10:09:25.773Z,32.24
2023-10-11T10:12:22.809Z,31.85
2023-10-11T10:15:04.186Z,36.15
2023-10-11T10:17:33.496Z,36.93
2023-10-11T10:20:46.322Z,38.96
2023-10-11T10:23:30.927Z,41.01
2023-10-11T10:26:39.515Z,40.05
2023-10-11T10:29:13.353Z,35.30
2023-10-11T10:32:09.941Z,31.92
2023-10-11T10:35:37.726Z,30.02
2023-10-11T10:38:10.901Z,27.68
2023-10-11T10:40:44.142Z,27.83
2023-10-11T10:43:29.278Z,26.83
2023-10-11T10:46:00.874Z,28.89
2023-10-11T10:48:32.676Z,29.55
2023-10-11T10:51:05.106Z,28.07
2023-10-11T10:53:40.641Z,28.31
2023-10-11T10:56:20.648Z,30.80
2023-10-11T10:58:49.368Z,28.42
2023-10-11T11:01:28.209Z,27.64
2023-10-11T11:03:59.718Z,28.00
2023-10-11T11:06:57.653Z,27.04
2023-10-11T11:09:28.287Z,26.81
2023-10-11T11:12:09.745Z,26.04
2023-10-11T11:14:39.318Z,28.00
2023-10-11T11:17:11.164Z,27.64
2023-10-11T11:19:39.223Z,28.39
2023-10-11T11:22:13.157Z,28.29
2023-10-11T11:24:42.984Z,25.01
2023-10-11T11:27:19.194Z,24.30
2023-10-11T11:29:49.210Z,24.85
2023-10-11T11:32:19.554Z,24.02
2023-10-11T11:35:01.667Z,24.04
2023-10-11T11:37:31.100Z,22.70
2023-10-11T11:40:19.668Z,23.13
2023-10-11T11:42:48.930Z,24.02
2023-10-11T11:45:18.622Z,24.11
2023-10-11T11:47:57.353Z,24.04
2023-10-11T11:50:28.348Z,24.76
2023-10-11T11:52:58.867Z,28.47
2023-10-11T11:55:28.663Z,28.09
2023-10-11T11:57:57.139Z,28.94
2023-10-11T12:00:40.586Z,27.07
2023-10-11T12:03:10.472Z,25.87
2023-10-11T12:05:42.158Z,26.31
2023-10-11T12:08:19.676Z,25.22
2023-10-11T12:11:06.343Z,24.05
2023-10-11T12:13:35.094Z,22.77
2023-10-11T12:16:10.382Z,23.36
2023-10-11T12:18:40.522Z,23.72
2023-10-11T12:21:13.204Z,25.33
2023-10-11T12:23:47.678Z,27.71
2023-10-11T12:26:18.970Z,31.70
2023-10-11T12:28:48.003Z,29.35
2023-10-11T12:31:18.092Z,29.00
2023-10-11T12:33:48.567Z,27.91
2023-10-11T12:36:21.758Z,28.89
2023-10-11T12:38:50.956Z,29.84
2023-10-11T12:41:19.779Z,30.13
2023-10-11T12:43:50.522Z,30.04
2023-10-11T12:46:21.165Z,33.02
2023-10-11T12:48:57.083Z,34.16
2023-10-11T12:51:28.883Z,33.38
2023-10-11T12:54:17.114Z,35.45
2023-10-11T12:56:46.101Z,35.45
2023-10-11T12:59:14.887Z,32.90
2023-10-11T13:01:51.217Z,33.87
2023-10-11T13:04:25.457Z,32.60
2023-10-11T13:06:54.593Z,31.74
2023-10-11T13:09:47.057Z,32.44
2023-10-11T13:12:18.974Z,32.19
2023-10-11T13:14:52.402Z,33.98
2023-10-11T13:17:21.139Z,35.84
2023-10-11T13:19:52.351Z,36.27
2023-10-11T13:22:21.131Z,36.76
2023-10-11T13:24:50.093Z,38.22
2023-10-11T13:27:23.198Z,37.04
2023-10-11T13:29:52.159Z,38.05
2023-10-11T13:32:20.917Z,39.77
2023-10-11T13:34:53.366Z,39.81
2023-10-11T13:37:23.296Z,39.66
2023-10-11T13:39:51.876Z,39.01
2023-10-11T13:42:20.496Z,38.68
2023-10-11T13:44:49.078Z,39.72
2023-10-11T13:47:18.212Z,40.26
2023-10-11T13:49:49.031Z,40.88
2023-10-11T13:52:21.919Z,40.99
2023-10-11T13:54:53.275Z,44.03
2023-10-11T13:57:23.717Z,43.88
2023-10-11T13:59:54.517Z,45.40
2023-10-11T14:02:37.867Z,46.58
2023-10-11T14:05:16.189Z,46.91
2023-10-11T14:07:52.207Z,47.28
2023-10-11T14:10:24.043Z,47.08
2023-10-11T14:12:53.396Z,49.13
2023-10-11T14:15:23.836Z,51.15
2023-10-11T14:17:53.882Z,52.18
2023-10-11T14:20:23.642Z,53.01
2023-10-11T14:22:55.078Z,52.80
2023-10-11T14:25:25.870Z,53.22
2023-10-11T14:27:54.666Z,52.85
2023-10-11T14:30:24.829Z,53.56
2023-10-11T14:32:53.643Z,54.27
2023-10-11T14:35:22.675Z,54.54
2023-10-11T14:37:51.657Z,54.78
2023-10-11T14:40:25.786Z,54.77
2023-10-11T14:42:54.431Z,54.80
2023-10-11T14:45:23.788Z,55.29
2023-10-11T14:47:54.291Z,55.77
2023-10-11T14:50:24.361Z,55.09
2023-10-11T14:52:53.628Z,54.48
2023-10-11T14:55:25.610Z,53.97
2023-10-11T14:57:55.037Z,53.84
2023-10-11T15:00:24.959Z,53.31
2023-10-11T15:02:55.801Z,53.27
2023-10-11T15:05:28.264Z,54.40
2023-10-11T15:07:57.510Z,55.33
2023-10-11T15:10:27.946Z,55.65
2023-10-11T15:12:57.320Z,55.98
2023-10-11T15:15:28.262Z,55.86
2023-10-11T15:18:02.381Z,56.43
2023-10-11T15:20:33.499Z,57.27
2023-10-11T15:23:02.575Z,57.23
2023-10-11T15:25:32.991Z,57.40
2023-10-11T15:28:02.221Z,58.30
2023-10-11T15:30:31.128Z,58.59
2023-10-11T15:33:01.760Z,59.15
2023-10-11T15:35:30.536Z,59.87
2023-10-11T15:37:59.112Z,59.42
2023-10-11T15:40:32.967Z,60.75
2023-10-11T15:43:03.964Z,60.79
2023-10-11T15:45:33.230Z,61.66
2023-10-11T15:48:02.391Z,61.48
2023-10-11T15:50:31.108Z,62.02
2023-10-11T15:53:01.860Z,62.20
2023-10-11T15:55:30.751Z,62.39
2023-10-11T15:57:59.722Z,62.61
2023-10-11T16:00:32.226Z,63.06
2023-10-11T16:03:06.367Z,62.51
2023-10-11T16:05:35.073Z,63.32
2023-10-11T16:08:05.654Z,63.57
2023-10-11T16:10:35.256Z,63.63
2023-10-11T16:13:03.870Z,62.84
2023-10-11T16:15:33.900Z,62.83
2023-10-11T16:18:03.988Z,63.15
2023-10-11T16:20:32.641Z,63.23
2023-10-11T16:23:01.235Z,62.89
2023-10-11T16:25:30.411Z,63.55
2023-10-11T16:27:59.524Z,63.61
2023-10-11T16:30:29.449Z,63.98
2023-10-11T16:32:59.562Z,63.57
2023-10-11T16:35:42.422Z,64.35
2023-10-11T16:38:14.544Z,64.49
2023-10-11T16:40:45.282Z,64.63
2023-10-11T16:43:14.369Z,64.66
2023-10-11T16:45:43.305Z,64.63
2023-10-11T16:48:13.375Z,64.72
2023-10-11T16:50:44.631Z,64.39
2023-10-11T16:53:14.400Z,64.59
2023-10-11T16:55:45.106Z,64.17
2023-10-11T16:58:13.663Z,64.31
2023-10-11T17:00:43.354Z,63.32
2023-10-11T17:03:15.065Z,63.53
2023-10-11T17:05:43.884Z,63.19
2023-10-11T17:08:13.473Z,62.86
2023-10-11T17:10:42.266Z,62.66
2023-10-11T17:13:10.917Z,62.49
2023-10-11T17:15:44.250Z,62.52
2023-10-11T17:18:15.457Z,62.51
2023-10-11T17:20:45.702Z,62.85
2023-10-11T17:23:15.654Z,62.66
2023-10-11T17:25:44.110Z,62.89
2023-10-11T17:28:13.087Z,62.75
2023-10-11T17:30:46.730Z,63.04
2023-10-11T17:33:17.687Z,62.17
2023-10-11T17:35:46.749Z,61.45
2023-10-11T17:38:16.335Z,59.83
2023-10-11T17:40:46.998Z,59.07
2023-10-11T17:43:20.116Z,59.08
2023-10-11T17:45:49.039Z,59.04
2023-10-11T17:48:19.188Z,58.87
2023-10-11T17:50:47.855Z,59.10
2023-10-11T17:53:16.426Z,59.41
2023-10-11T17:55:58.409Z,58.25
2023-10-11T17:58:28.340Z,58.22
2023-10-11T18:00:58.856Z,58.11
2023-10-11T18:03:29.007Z,57.13
2023-10-11T18:05:57.871Z,56.49
2023-10-11T18:08:26.565Z,56.23
2023-10-11T18:10:59.697Z,56.44
2023-10-11T18:13:28.590Z,54.94
2023-10-11T18:15:57.167Z,54.57
2023-10-11T18:18:26.462Z,53.94
2023-10-11T18:20:56.368Z,53.84
2023-10-11T18:23:25.154Z,53.74
2023-10-11T18:25:55.147Z,53.40
2023-10-11T18:28:24.973Z,53.33
2023-10-11T18:30:53.549Z,52.93
2023-10-11T18:33:22.321Z,53.08
2023-10-11T18:35:51.239Z,52.44
2023-10-11T18:38:21.543Z,52.82
2023-10-11T18:40:50.238Z,52.66
2023-10-11T18:43:19.135Z,53.01
2023-10-11T18:45:49.218Z,53.65
2023-10-11T18:48:18.533Z,54.11
2023-10-11T18:50:47.404Z,53.94
2023-10-11T18:53:16.010Z,53.89
2023-10-11T18:55:46.695Z,54.10
2023-10-11T18:58:15.325Z,54.25
2023-10-11T19:00:48.268Z,54.75
2023-10-11T19:03:19.492Z,54.53
2023-10-11T19:05:48.417Z,55.23
2023-10-11T19:08:17.002Z,54.75
2023-10-11T19:10:48.849Z,55.01
2023-10-11T19:13:17.600Z,54.93
2023-10-11T19:15:46.697Z,55.12
2023-10-11T19:18:17.905Z,55.62
2023-10-11T19:20:48.041Z,55.30
2023-10-11T19:23:18.329Z,55.49
2023-10-11T19:25:57.045Z,55.63
2023-10-11T19:28:25.696Z,56.09
2023-10-11T19:30:54.231Z,56.20
2023-10-11T19:33:23.052Z,56.63
2023-10-11T19:35:51.752Z,56.79
2023-10-11T19:38:22.081Z,57.34
2023-10-11T19:40:52.030Z,57.69
2023-10-11T19:43:20.580Z,58.12
2023-10-11T19:45:49.435Z,58.75
2023-10-11T19:48:18.189Z,58.97
2023-10-11T19:50:48.493Z,59.57
2023-10-11T19:53:20.379Z,59.92
2023-10-11T19:55:49.612Z,60.34
2023-10-11T19:58:19.468Z,60.97
2023-10-11T20:00:48.202Z,61.21
2023-10-11T20:03:16.858Z,61.35
2023-10-11T20:05:45.687Z,61.94
2023-10-11T20:08:16.698Z,62.33
2023-10-11T20:10:48.089Z,62.52
2023-10-11T20:13:19.326Z,62.97
2023-10-11T20:15:48.116Z,63.43
2023-10-11T20:18:17.149Z,64.06
2023-10-11T20:20:47.684Z,64.27
2023-10-11T20:23:17.889Z,64.64
2023-10-11T20:25:46.624Z,65.19
2023-10-11T20:28:15.232Z,65.17
2023-10-11T20:30:45.282Z,65.44
2023-10-11T20:33:16.950Z,65.49
2023-10-11T20:35:45.785Z,66.06
2023-10-11T20:38:17.394Z,66.18
2023-10-11T20:40:46.628Z,67.03
2023-10-11T20:43:15.331Z,67.09
2023-10-11T20:45:45.229Z,67.38
2023-10-11T20:48:14.136Z,67.31
2023-10-11T20:50:42.966Z,68.06
2023-10-11T20:53:11.582Z,67.95
2023-10-11T20:55:43.982Z,68.17
2023-10-11T20:58:22.369Z,68.85
2023-10-11T21:00:52.787Z,69.26
2023-10-11T21:03:23.181Z,69.98
2023-10-11T21:05:53.664Z,70.71
2023-10-11T21:08:26.827Z,70.74
2023-10-11T21:10:56.211Z,70.74
2023-10-11T21:13:27.121Z,71.42
2023-10-11T21:16:03.706Z,71.66
2023-10-11T21:18:36.551Z,72.12
2023-10-11T21:21:05.583Z,71.99
2023-10-11T21:23:34.370Z,72.51
2023-10-11T21:26:03.741Z,72.78
2023-10-11T21:28:32.595Z,72.33
2023-10-11T21:31:03.439Z,73.11
2023-10-11T21:33:36.883Z,73.58
2023-10-11T21:36:08.120Z,74.09
2023-10-11T21:38:37.990Z,73.97
2023-10-11T21:41:07.461Z,74.16
2023-10-11T21:43:36.169Z,74.41
2023-10-11T21:46:11.652Z,74.74
2023-10-11T21:48:40.905Z,74.96
2023-10-11T21:51:14.131Z,75.59
2023-10-11T21:53:43.612Z,75.75
2023-10-11T21:56:12.575Z,75.86
2023-10-11T21:58:41.764Z,75.93
2023-10-11T22:01:24.575Z,75.88
2023-10-11T22:03:56.474Z,76.38
2023-10-11T22:06:25.688Z,77.00
2023-10-11T22:08:54.283Z,76.78
2023-10-11T22:11:26.720Z,76.54
2023-10-11T22:13:57.638Z,76.76
2023-10-11T22:16:27.994Z,77.44
2023-10-11T22:18:59.795Z,78.03
2023-10-11T22:21:28.840Z,78.32
2023-10-11T22:23:57.365Z,78.20
2023-10-11T22:26:26.360Z,78.10
2023-10-11T22:28:55.056Z,77.66
2023-10-11T22:31:24.020Z,77.43
2023-10-11T22:33:55.937Z,77.86
2023-10-11T22:36:28.004Z,77.25
2023-10-11T22:38:58.727Z,77.48
2023-10-11T22:41:27.268Z,78.13
2023-10-11T22:43:55.929Z,78.23
2023-10-11T22:46:25.985Z,78.32
2023-10-11T22:48:58.848Z,78.07
2023-10-11T22:51:29.246Z,78.19
2023-10-11T22:54:01.458Z,78.03
2023-10-11T22:56:31.799Z,78.29
2023-10-11T22:59:04.576Z,78.15
2023-10-11T23:01:33.851Z,77.43
2023-10-11T23:04:04.382Z,77.23
2023-10-11T23:06:34.118Z,77.24
2023-10-11T23:09:04.828Z,77.31
2023-10-11T23:11:37.449Z,77.16
2023-10-11T23:14:07.012Z,76.95
2023-10-11T23:16:37.889Z,76.77
2023-10-11T23:19:21.061Z,76.30
2023-10-11T23:21:52.448Z,76.26
2023-10-11T23:24:32.434Z,75.44
2023-10-11T23:27:02.437Z,75.74
2023-10-11T23:29:34.759Z,75.22
2023-10-11T23:32:04.195Z,74.78
2023-10-11T23:34:34.560Z,74.85
2023-10-11T23:37:03.801Z,75.03
2023-10-11T23:39:35.711Z,75.23
2023-10-11T23:42:15.737Z,75.36
2023-10-11T23:44:44.614Z,75.58
2023-10-11T23:47:23.672Z,75.88
2023-10-11T23:49:56.591Z,76.90
2023-10-11T23:52:28.665Z,76.33
2023-10-11T23:55:04.981Z,75.62
2023-10-11T23:57:36.967Z,75.28
